Terminal Aerodrome Forecast
Issued by NWS

Home | Current Version | Previous Version | Text Only | Print | Product List | Glossary On
Versions: 1 2 3 4 5 6 7 8 9 10 11 12 13 14 15 16 17 18 19
000
FTUS43 KDVN 171700
TAFBRL
TAF
KBRL 171721Z 1718/1818 32008KT P6SM OVC015
     FM172200 35004KT P6SM SCT015
     FM180100 02003KT P6SM SCT250
     FM180400 02003KT P6SM SCT100 OVC250
     FM181000 02003KT P6SM SCT040 OVC100
     FM181500 06004KT 5SM -SN BR OVC040=

USA.gov is the U.S. government's official web portal to all federal, state and local government web resources and services.